Taipei Triumph — 9V3478 — position and weather

sailwx.info

Track history (hours):
 
Tides and Currents Weather Stations Pressure Air Temp Water Temp Dewpoint Dewpoint Depression Visibility Wind Speed Wind Dir Waves Ship Positions

Taipei Triumph

Last reported at 2018-Jul-08 07:22 UTC. Time now 2018-Jul-17 07:43 UTC.
Position N 30°52' E 032°19'.
Warning: this ship's position is 9 days out of date.

Length 365 m; draft 15.4 m.

Type: Cargo ship. MMSI: 563029900.

Date/timePositionNaut miles runAvg speedWind from/ knotsBaromVisibWave heightAir tempDewpointWater temp
2018-Jul-08 07:22N 30°52' E 032°19'15 9.0
2018-Jul-08 05:41N 31°07' E 032°19'2 8.7
2018-Jul-08 05:30N 31°08' E 032°19'5 6.8
2018-Jul-08 04:50N 31°13' E 032°20'2 5.5
2018-Jul-08 04:28N 31°15' E 032°21'6 9.3
2018-Jul-08 03:51N 31°20' E 032°23'3 8.7
2018-Jul-08 03:29N 31°23' E 032°24'4 8.8
2018-Jul-08 03:00N 31°28' E 032°24'1 1.6
2018-Jul-08 02:25N 31°28' E 032°23'1 2.0
2018-Jul-08 01:55N 31°28' E 032°22'1 0.9
2018-Jul-08 01:06N 31°27' E 032°23'0 0.8
2018-Jul-08 01:00N 31°27' E 032°23'1 0.7
2018-Jul-07 23:37N 31°28' E 032°23'1 4.5
2018-Jul-07 23:30N 31°29' E 032°23'1 2.3
2018-Jul-07 23:00N 31°29' E 032°22'612.2
2018-Jul-07 22:30N 31°31' E 032°15'1020.1
2018-Jul-07 22:00N 31°37' E 032°06'1020.4
2018-Jul-07 21:30N 31°45' E 031°57'1121.8
2018-Jul-07 21:00N 31°52' E 031°48'1221.6
2018-Jul-07 20:26N 31°59' E 031°36'921.3
2018-Jul-07 20:00N 32°05' E 031°27'1121.3
2018-Jul-07 19:30N 32°12' E 031°17'1121.9
2018-Jul-07 19:00N 32°18' E 031°07'1021.5
2018-Jul-07 18:30N 32°25' E 030°58'1122.1
2018-Jul-07 17:59N 32°32' E 030°47'1121.8
2018-Jul-07 17:29N 32°39' E 030°37'1121.6
2018-Jul-07 16:58N 32°46' E 030°27'1121.4
2018-Jul-07 16:28N 32°53' E 030°16'1021.3
2018-Jul-07 15:58N 32°59' E 030°07'1521.4
2018-Jul-07 15:15N 33°09' E 029°52'521.5
2018-Jul-07 15:00N 33°12' E 029°47'1121.7
2018-Jul-07 14:30N 33°19' E 029°37'1122.0
2018-Jul-07 14:00N 33°25' E 029°27'1122.3
2018-Jul-07 13:30N 33°32' E 029°16'1122.4
2018-Jul-07 13:00N 33°40' E 029°06'1122.3
2018-Jul-07 12:30N 33°46' E 028°55'1121.8
2018-Jul-07 12:00N 33°53' E 028°45'12721.4
2018-Jul-07 06:04N 35°12' E 026°44'221.3
2018-Jul-07 05:57N 35°14' E 026°42'13021.4
2018-Jul-06 23:54N 36°22' E 024°26'922.0
2018-Jul-06 23:29N 36°27' E 024°16'3620.2
2018-Jul-06 21:41N 36°60' E 023°56'421.1
2018-Jul-06 21:30N 37°03' E 023°55'1321.2
2018-Jul-06 20:53N 37°16' E 023°51'821.4
2018-Jul-06 20:30N 37°24' E 023°48'1121.2
2018-Jul-06 20:00N 37°34' E 023°44'1020.5
2018-Jul-06 19:30N 37°43' E 023°39'816.7
2018-Jul-06 19:00N 37°51' E 023°37'510.5
2018-Jul-06 18:30N 37°57' E 023°36'1 2.0
2018-Jul-06 18:00N 37°57' E 023°35'0 0.1
2018-Jul-06 17:30N 37°57' E 023°35'0 0.0
2018-Jul-06 17:00N 37°57' E 023°35'0 0.0
2018-Jul-06 16:30N 37°57' E 023°35'0 0.0
2018-Jul-06 16:00N 37°57' E 023°35'0 0.0
2018-Jul-06 15:30N 37°57' E 023°35'0 0.0
2018-Jul-06 15:00N 37°57' E 023°35'0 0.0
2018-Jul-06 14:30N 37°57' E 023°35'0 0.0
2018-Jul-06 14:00N 37°57' E 023°35'0 0.0
2018-Jul-06 13:30N 37°57' E 023°35'0 0.0
2018-Jul-06 13:00N 37°57' E 023°35'0 0.0
2018-Jul-06 12:30N 37°57' E 023°35'0 0.0
2018-Jul-06 12:00N 37°57' E 023°35'0 0.0
2018-Jul-06 11:30N 37°57' E 023°35'0 0.0
2018-Jul-06 11:00N 37°57' E 023°35'0 0.0
2018-Jul-06 10:30N 37°57' E 023°35'0 0.0
2018-Jul-06 09:54N 37°57' E 023°35'0 0.0
2018-Jul-06 09:18N 37°57' E 023°35'0 0.0
2018-Jul-06 09:00N 37°57' E 023°35'0 0.0
2018-Jul-06 08:12N 37°57' E 023°35'0 0.0
2018-Jul-06 08:00N 37°57' E 023°35'0 0.0
2018-Jul-06 07:30N 37°57' E 023°35'0 0.0
2018-Jul-06 07:00N 37°57' E 023°35'0 0.0
2018-Jul-06 06:27N 37°57' E 023°35'0 0.0
2018-Jul-06 06:00N 37°57' E 023°35'0 0.0
2018-Jul-06 05:30N 37°57' E 023°35'0 0.0
2018-Jul-06 05:00N 37°57' E 023°35'0 0.0
2018-Jul-06 04:30N 37°57' E 023°35'0 0.0
2018-Jul-06 04:00N 37°57' E 023°35'0 0.0
2018-Jul-06 03:30N 37°57' E 023°35'0 0.0
2018-Jul-06 03:00N 37°57' E 023°35'0 0.0
2018-Jul-06 02:30N 37°57' E 023°35'0 0.0
2018-Jul-06 02:00N 37°57' E 023°35'0 0.0
2018-Jul-06 01:30N 37°57' E 023°35'0 0.0
2018-Jul-06 01:00N 37°57' E 023°35'0 0.0
2018-Jul-06 00:30N 37°57' E 023°35'0 0.0
2018-Jul-06 00:00N 37°57' E 023°35'0 0.0
2018-Jul-05 23:30N 37°57' E 023°35'0 0.0
2018-Jul-05 23:00N 37°57' E 023°35'0 0.0
2018-Jul-05 22:30N 37°57' E 023°35'0 0.0
2018-Jul-05 22:00N 37°57' E 023°35'0 0.0
2018-Jul-05 21:30N 37°57' E 023°35'0 0.0
2018-Jul-05 21:00N 37°57' E 023°35'0 0.0
2018-Jul-05 20:30N 37°57' E 023°35'0 0.0
2018-Jul-05 20:00N 37°57' E 023°35'0 0.0
2018-Jul-05 19:30N 37°57' E 023°35'0 0.0
2018-Jul-05 19:00N 37°57' E 023°35'0 0.0
2018-Jul-05 18:30N 37°57' E 023°35'0 0.0
2018-Jul-05 18:00N 37°57' E 023°35'0 0.0
2018-Jul-05 17:30N 37°57' E 023°35'0 0.0
2018-Jul-05 17:00N 37°57' E 023°35'0 0.0
2018-Jul-05 16:30N 37°57' E 023°35'0 0.0
2018-Jul-05 16:00N 37°57' E 023°35'0 0.1
2018-Jul-05 15:30N 37°57' E 023°35'0 0.0
2018-Jul-05 15:00N 37°57' E 023°35'0 0.0
2018-Jul-05 14:30N 37°57' E 023°35'0 0.0
2018-Jul-05 13:30N 37°57' E 023°35'0 0.0
2018-Jul-05 13:00N 37°57' E 023°35'0 0.0
2018-Jul-05 12:30N 37°57' E 023°35'0 0.0
2018-Jul-05 12:00N 37°57' E 023°35'0 0.0
2018-Jul-05 11:30N 37°57' E 023°35'0 0.1
2018-Jul-05 11:00N 37°57' E 023°35'0 0.0
2018-Jul-05 10:30N 37°57' E 023°35'0 0.0
2018-Jul-05 10:00N 37°57' E 023°35'0 0.0
2018-Jul-05 09:30N 37°57' E 023°35'0 0.0
2018-Jul-05 09:00N 37°57' E 023°35'0 0.0
2018-Jul-05 08:30N 37°57' E 023°35'0 0.0
2018-Jul-05 08:00N 37°57' E 023°35'0 0.0
2018-Jul-05 07:30N 37°57' E 023°35'0 0.0
2018-Jul-05 07:00N 37°57' E 023°35'0 0.0
2018-Jul-05 06:30N 37°57' E 023°35'0 0.0
2018-Jul-05 06:00N 37°57' E 023°35'0 0.0
2018-Jul-05 05:30N 37°57' E 023°35'0 0.0
2018-Jul-05 05:00N 37°57' E 023°35'0 0.0
2018-Jul-05 04:30N 37°57' E 023°35'0 0.0
2018-Jul-05 04:00N 37°57' E 023°35'0 0.0
2018-Jul-05 03:30N 37°57' E 023°35'0 0.0
2018-Jul-05 03:00N 37°57' E 023°35'0 0.0
2018-Jul-05 02:30N 37°57' E 023°35'0 0.0
2018-Jul-05 02:00N 37°57' E 023°35'0 0.0
2018-Jul-05 01:30N 37°57' E 023°35'0 0.0
2018-Jul-05 01:00N 37°57' E 023°35'0 0.0
2018-Jul-05 00:30N 37°57' E 023°35'0 0.0
2018-Jul-05 00:00N 37°57' E 023°35'0 0.0
2018-Jul-04 23:30N 37°57' E 023°35'0 0.0
2018-Jul-04 23:00N 37°57' E 023°35'0 0.2
2018-Jul-04 22:30N 37°57' E 023°35'2 4.1
2018-Jul-04 22:00N 37°55' E 023°35'2 3.1
2018-Jul-04 21:30N 37°54' E 023°35'1 2.8
2018-Jul-04 21:00N 37°52' E 023°35'1 1.2
2018-Jul-04 20:30N 37°52' E 023°35'0 0.4
2018-Jul-04 20:00N 37°52' E 023°35'2 4.8
2018-Jul-04 19:31N 37°51' E 023°38'5 9.1
2018-Jul-04 19:00N 37°47' E 023°41'511.0
2018-Jul-04 18:30N 37°43' E 023°44'816.7
2018-Jul-04 18:00N 37°35' E 023°47'1020.0
2018-Jul-04 17:30N 37°25' E 023°45'1121.9
2018-Jul-04 17:00N 37°14' E 023°42'1122.2
2018-Jul-04 16:30N 37°03' E 023°39'1122.2
2018-Jul-04 16:00N 36°52' E 023°35'1122.2
2018-Jul-04 15:30N 36°42' E 023°31'1122.3
2018-Jul-04 15:00N 36°32' E 023°25'1122.1
2018-Jul-04 14:30N 36°22' E 023°20'49421.6
2018-Jul-03 15:36N 36°58' E 013°06'222.5
2018-Jul-03 15:30N 36°59' E 013°03'1122.6
2018-Jul-03 15:00N 37°03' E 012°50'1222.6
2018-Jul-03 14:28N 37°08' E 012°36'1022.1
2018-Jul-03 14:00N 37°11' E 012°24'35222.3
2018-Jul-02 22:15N 38°40' E 005°12'921.6
2018-Jul-02 21:51N 38°42' E 005°01'1321.8
2018-Jul-02 21:16N 38°45' E 004°46'621.9
2018-Jul-02 21:00N 38°46' E 004°39'1122.0
2018-Jul-02 20:30N 38°48' E 004°25'1422.0
2018-Jul-02 19:51N 38°51' E 004°07'1122.2
2018-Jul-02 19:21N 38°54' E 003°53'822.0
2018-Jul-02 19:00N 38°55' E 003°43'1122.0
2018-Jul-02 18:30N 38°58' E 003°29'1121.8
2018-Jul-02 18:00N 38°60' E 003°16'1122.0
2018-Jul-02 17:30N 39°02' E 003°02'1122.1
2018-Jul-02 17:00N 39°05' E 002°48'1122.1
2018-Jul-02 16:30N 39°07' E 002°34'1122.1
2018-Jul-02 16:00N 39°09' E 002°20'1322.0
2018-Jul-02 15:26N 39°12' E 002°04'10421.8
2018-Jul-02 10:39N 39°24' W 000°09'215.8
2018-Jul-02 10:30N 39°25' W 000°12'5 9.9
2018-Jul-02 10:00N 39°26' W 000°19'1 1.1
2018-Jul-02 09:30N 39°26' W 000°19'0 0.0
2018-Jul-02 09:00N 39°26' W 000°19'0 0.0
2018-Jul-02 08:30N 39°26' W 000°19'0 0.0
2018-Jul-02 08:00N 39°26' W 000°19'0 0.0
2018-Jul-02 07:15N 39°26' W 000°19'0 0.0
2018-Jul-02 07:00N 39°26' W 000°19'0 0.0
2018-Jul-02 06:24N 39°26' W 000°19'0 0.0
2018-Jul-02 06:00N 39°26' W 000°19'0 0.0
2018-Jul-02 05:30N 39°26' W 000°19'0 0.0
2018-Jul-02 05:00N 39°26' W 000°19'0 0.0
2018-Jul-02 03:42N 39°26' W 000°19'0 0.0
2018-Jul-02 03:30N 39°26' W 000°19'0 0.0
2018-Jul-02 03:00N 39°26' W 000°19'0 0.0
2018-Jul-02 02:30N 39°26' W 000°19'0 0.0
2018-Jul-02 02:00N 39°26' W 000°19'0 0.0
2018-Jul-02 01:30N 39°26' W 000°19'0 0.0
2018-Jul-02 01:00N 39°26' W 000°19'0 0.0
2018-Jul-02 00:30N 39°26' W 000°19'0 0.0
2018-Jul-02 00:00N 39°26' W 000°19'0 0.0
2018-Jul-01 23:18N 39°26' W 000°19'0 0.0
2018-Jul-01 20:48N 39°26' W 000°19'0 0.0
2018-Jul-01 20:30N 39°26' W 000°19'0 0.0
2018-Jul-01 20:00N 39°26' W 000°19'0 0.0
2018-Jul-01 19:30N 39°26' W 000°19'0 0.0
2018-Jul-01 17:48N 39°26' W 000°19'0 0.0
2018-Jul-01 16:48N 39°26' W 000°19'0 0.0
2018-Jul-01 16:30N 39°26' W 000°19'0 0.0
2018-Jul-01 15:57N 39°26' W 000°19'0 0.0
2018-Jul-01 15:27N 39°26' W 000°19'0 0.0
2018-Jul-01 14:30N 39°26' W 000°19'0 0.0
2018-Jul-01 14:00N 39°26' W 000°19'0 0.0
2018-Jul-01 13:30N 39°26' W 000°19'0 0.0
2018-Jul-01 12:57N 39°26' W 000°19'0 0.0
2018-Jul-01 10:24N 39°26' W 000°19'0 0.0
2018-Jul-01 10:00N 39°26' W 000°19'0 0.0
2018-Jul-01 09:30N 39°26' W 000°19'0 0.0
2018-Jul-01 09:00N 39°26' W 000°19'0 0.0
2018-Jul-01 08:30N 39°26' W 000°19'0 0.0
2018-Jul-01 08:00N 39°26' W 000°19'0 0.0
2018-Jul-01 07:27N 39°26' W 000°19'0 0.0
2018-Jul-01 07:00N 39°26' W 000°19'0 0.0
2018-Jul-01 06:30N 39°26' W 000°19'0 0.0
2018-Jul-01 06:00N 39°26' W 000°19'0 0.0
2018-Jul-01 05:30N 39°26' W 000°19'0 0.0
2018-Jul-01 04:57N 39°26' W 000°19'0 0.0
2018-Jul-01 04:27N 39°26' W 000°19'0 0.0
2018-Jul-01 04:00N 39°26' W 000°19'0 0.0
2018-Jul-01 02:42N 39°26' W 000°19'0 0.0
2018-Jul-01 02:21N 39°26' W 000°19'0 0.0
2018-Jul-01 02:00N 39°26' W 000°19'0 0.0
2018-Jul-01 01:18N 39°26' W 000°19'0 0.0
2018-Jul-01 01:00N 39°26' W 000°19'0 0.0
2018-Jul-01 00:21N 39°26' W 000°19'0 0.0
2018-Jul-01 00:00N 39°26' W 000°19'0 0.0
2018-Jun-30 23:30N 39°26' W 000°19'0 0.0
2018-Jun-30 23:00N 39°26' W 000°19'0 0.1
2018-Jun-30 22:30N 39°26' W 000°19'1 2.2
2018-Jun-30 22:00N 39°26' W 000°18'2 4.7
2018-Jun-30 21:30N 39°25' W 000°15'1 1.1
2018-Jun-30 21:00N 39°25' W 000°15'2 4.7
2018-Jun-30 20:31N 39°25' W 000°12'5 9.8
2018-Jun-30 20:00N 39°27' W 000°06'9118.6
2018-Jun-30 15:05N 40°16' E 001°35'222.5
2018-Jun-30 14:59N 40°17' E 001°37'1122.7
2018-Jun-30 14:30N 40°24' E 001°48'1123.0
2018-Jun-30 14:01N 40°31' E 001°60'1322.9
2018-Jun-30 13:26N 40°40' E 002°13'1022.5
2018-Jun-30 12:59N 40°46' E 002°23'1122.7
2018-Jun-30 12:30N 40°53' E 002°34'1122.8
2018-Jun-30 12:00N 41°01' E 002°46'1122.7
2018-Jun-30 11:31N 41°08' E 002°57'1122.9
2018-Jun-30 11:00N 41°15' E 003°09'1223.2
2018-Jun-30 10:31N 41°22' E 003°21'1122.9
2018-Jun-30 10:01N 41°30' E 003°33'1122.5
2018-Jun-30 09:30N 41°37' E 003°44'1122.2
2018-Jun-30 09:00N 41°45' E 003°54'1121.8
2018-Jun-30 08:30N 41°55' E 004°02'1121.7
2018-Jun-30 08:00N 42°04' E 004°09'1121.6
2018-Jun-30 07:30N 42°14' E 004°16'1121.8
2018-Jun-30 07:01N 42°23' E 004°23'1122.1
2018-Jun-30 06:30N 42°33' E 004°31'1122.5
2018-Jun-30 06:01N 42°43' E 004°38'1622.5
2018-Jun-30 05:18N 42°56' E 004°49'722.4
2018-Jun-30 05:00N 43°02' E 004°53'1020.9
2018-Jun-30 04:30N 43°11' E 005°00'816.2
2018-Jun-30 04:01N 43°19' E 004°59'510.7
2018-Jun-30 03:30N 43°24' E 004°55'3 6.3
2018-Jun-30 03:00N 43°25' E 004°51'0 0.0
2018-Jun-30 02:29N 43°25' E 004°51'0 0.0
2018-Jun-30 01:59N 43°25' E 004°51'0 0.0
2018-Jun-30 01:29N 43°25' E 004°51'0 0.0
2018-Jun-30 00:59N 43°25' E 004°51'0 0.0
2018-Jun-30 00:29N 43°25' E 004°51'0 0.0
2018-Jun-29 23:59N 43°25' E 004°51'0 0.0
2018-Jun-29 23:29N 43°25' E 004°51'0 0.0
2018-Jun-29 22:59N 43°25' E 004°51'0 0.0
2018-Jun-29 22:29N 43°25' E 004°51'0 0.0
2018-Jun-29 21:59N 43°25' E 004°51'0 0.0
2018-Jun-29 21:30N 43°25' E 004°51'0 0.0
2018-Jun-29 21:00N 43°25' E 004°51'0 0.0
2018-Jun-29 20:30N 43°25' E 004°51'0 0.0
2018-Jun-29 20:00N 43°25' E 004°51'0 0.0
2018-Jun-29 19:30N 43°25' E 004°51'0 0.0
2018-Jun-29 19:00N 43°25' E 004°51'0 0.0
2018-Jun-29 18:30N 43°25' E 004°51'0 0.0
2018-Jun-29 18:00N 43°25' E 004°51'0 0.0
2018-Jun-29 17:30N 43°25' E 004°51'0 0.0
2018-Jun-29 17:00N 43°25' E 004°51'0 0.0
2018-Jun-29 16:30N 43°25' E 004°51'0 0.0
2018-Jun-29 16:00N 43°25' E 004°51'0 0.0
2018-Jun-29 15:30N 43°25' E 004°51'0 0.0
2018-Jun-29 15:00N 43°25' E 004°51'0 0.0
2018-Jun-29 14:30N 43°25' E 004°51'0 0.0
2018-Jun-29 14:00N 43°25' E 004°51'0 0.0
2018-Jun-29 13:30N 43°25' E 004°51'0 0.0
2018-Jun-29 13:00N 43°25' E 004°51'0 0.0
2018-Jun-29 12:30N 43°25' E 004°51'0 0.0
2018-Jun-29 12:00N 43°25' E 004°51'0 0.0
2018-Jun-29 11:30N 43°25' E 004°51'0 0.0
2018-Jun-29 11:00N 43°25' E 004°51'0 0.0
2018-Jun-29 10:30N 43°25' E 004°51'0 0.0
2018-Jun-29 10:00N 43°25' E 004°51'0 0.0
2018-Jun-29 09:30N 43°25' E 004°51'0 0.0
2018-Jun-29 09:00N 43°25' E 004°51'0 0.0
2018-Jun-29 08:30N 43°25' E 004°51'0 0.0
2018-Jun-29 08:00N 43°25' E 004°51'0 0.0
2018-Jun-29 07:30N 43°25' E 004°51'0 0.0
2018-Jun-29 07:00N 43°25' E 004°51'0 0.0
2018-Jun-29 06:30N 43°25' E 004°51'0 0.0
2018-Jun-29 06:00N 43°25' E 004°51'0 0.0
2018-Jun-29 05:28N 43°25' E 004°51'0 0.0
2018-Jun-29 04:58N 43°25' E 004°51'0 0.0
2018-Jun-29 04:28N 43°25' E 004°51'0 0.0
2018-Jun-29 03:58N 43°25' E 004°51'0 0.0
2018-Jun-29 03:28N 43°25' E 004°51'0 0.0
2018-Jun-29 02:58N 43°25' E 004°51'0 0.0
2018-Jun-29 02:28N 43°25' E 004°51'0 0.0
2018-Jun-29 01:58N 43°25' E 004°51'0 0.0
2018-Jun-29 01:28N 43°25' E 004°51'0 0.0
2018-Jun-29 00:58N 43°25' E 004°51'0 0.0
2018-Jun-29 00:28N 43°25' E 004°51'0 0.0
2018-Jun-28 23:58N 43°25' E 004°51'0 0.0
2018-Jun-28 23:28N 43°25' E 004°51'0 0.0
2018-Jun-28 22:58N 43°25' E 004°51'0 0.0
2018-Jun-28 22:28N 43°25' E 004°51'0 0.0
2018-Jun-28 21:55N 43°25' E 004°51'0 0.0
2018-Jun-28 21:28N 43°25' E 004°51'0 0.0
2018-Jun-28 20:58N 43°25' E 004°51'0 0.0
2018-Jun-28 20:22N 43°25' E 004°51'0 0.0
2018-Jun-28 19:58N 43°25' E 004°51'0 0.0
2018-Jun-28 19:28N 43°25' E 004°51'0 0.0
2018-Jun-28 18:58N 43°25' E 004°51'0 0.0
2018-Jun-28 18:28N 43°25' E 004°51'0 0.0
2018-Jun-28 17:58N 43°25' E 004°51'0 0.0
2018-Jun-28 17:22N 43°25' E 004°51'0 0.0
2018-Jun-28 16:58N 43°25' E 004°51'0 0.0
2018-Jun-28 16:28N 43°25' E 004°51'0 0.0
2018-Jun-28 15:55N 43°25' E 004°51'0 0.0
2018-Jun-28 15:28N 43°25' E 004°51'0 0.0
2018-Jun-28 14:58N 43°25' E 004°51'0 0.0
2018-Jun-28 14:28N 43°25' E 004°51'0 0.0
2018-Jun-28 13:55N 43°25' E 004°51'0 0.0
2018-Jun-28 13:28N 43°25' E 004°51'0 0.0
2018-Jun-28 12:52N 43°25' E 004°51'0 0.0
2018-Jun-28 12:22N 43°25' E 004°51'0 0.0
2018-Jun-28 11:58N 43°25' E 004°51'0 0.0
2018-Jun-28 11:28N 43°25' E 004°51'0 0.0
2018-Jun-28 10:52N 43°25' E 004°51'0 0.0
2018-Jun-28 10:28N 43°25' E 004°51'0 0.0
2018-Jun-28 09:58N 43°25' E 004°51'0 0.0
2018-Jun-28 09:16N 43°25' E 004°51'0 0.0
2018-Jun-28 08:58N 43°25' E 004°51'0 0.0
2018-Jun-28 08:28N 43°25' E 004°51'0 0.0
2018-Jun-28 07:58N 43°25' E 004°51'0 0.0
2018-Jun-28 07:28N 43°25' E 004°51'  
Track history (hours):
 
Tides and Currents Weather Stations Pressure Air Temp Water Temp Dewpoint Dewpoint Depression Visibility Wind Speed Wind Dir Waves Ship Positions

Taipei Triumph

Last reported at 2018-Jul-08 07:22 UTC. Time now 2018-Jul-17 07:43 UTC.
Position N 30°52' E 032°19'.
Warning: this ship's position is 9 days out of date.

Length 365 m; draft 15.4 m.

Type: Cargo ship. MMSI: 563029900.

Date/timePositionNaut miles runAvg speedWind from/ knotsBaromVisibWave heightAir tempDewpointWater temp
2018-Jul-08 07:22N 30°52' E 032°19'15 9.0
2018-Jul-08 05:41N 31°07' E 032°19'2 8.7
2018-Jul-08 05:30N 31°08' E 032°19'5 6.8
2018-Jul-08 04:50N 31°13' E 032°20'2 5.5
2018-Jul-08 04:28N 31°15' E 032°21'6 9.3
2018-Jul-08 03:51N 31°20' E 032°23'3 8.7
2018-Jul-08 03:29N 31°23' E 032°24'4 8.8
2018-Jul-08 03:00N 31°28' E 032°24'1 1.6
2018-Jul-08 02:25N 31°28' E 032°23'1 2.0
2018-Jul-08 01:55N 31°28' E 032°22'1 0.9
2018-Jul-08 01:06N 31°27' E 032°23'0 0.8
2018-Jul-08 01:00N 31°27' E 032°23'1 0.7
2018-Jul-07 23:37N 31°28' E 032°23'1 4.5
2018-Jul-07 23:30N 31°29' E 032°23'1 2.3
2018-Jul-07 23:00N 31°29' E 032°22'612.2
2018-Jul-07 22:30N 31°31' E 032°15'1020.1
2018-Jul-07 22:00N 31°37' E 032°06'1020.4
2018-Jul-07 21:30N 31°45' E 031°57'1121.8
2018-Jul-07 21:00N 31°52' E 031°48'1221.6
2018-Jul-07 20:26N 31°59' E 031°36'921.3
2018-Jul-07 20:00N 32°05' E 031°27'1121.3
2018-Jul-07 19:30N 32°12' E 031°17'1121.9
2018-Jul-07 19:00N 32°18' E 031°07'1021.5
2018-Jul-07 18:30N 32°25' E 030°58'1122.1
2018-Jul-07 17:59N 32°32' E 030°47'1121.8
2018-Jul-07 17:29N 32°39' E 030°37'1121.6
2018-Jul-07 16:58N 32°46' E 030°27'1121.4
2018-Jul-07 16:28N 32°53' E 030°16'1021.3
2018-Jul-07 15:58N 32°59' E 030°07'1521.4
2018-Jul-07 15:15N 33°09' E 029°52'521.5
2018-Jul-07 15:00N 33°12' E 029°47'1121.7
2018-Jul-07 14:30N 33°19' E 029°37'1122.0
2018-Jul-07 14:00N 33°25' E 029°27'1122.3
2018-Jul-07 13:30N 33°32' E 029°16'1122.4
2018-Jul-07 13:00N 33°40' E 029°06'1122.3
2018-Jul-07 12:30N 33°46' E 028°55'1121.8
2018-Jul-07 12:00N 33°53' E 028°45'12721.4
2018-Jul-07 06:04N 35°12' E 026°44'221.3
2018-Jul-07 05:57N 35°14' E 026°42'13021.4
2018-Jul-06 23:54N 36°22' E 024°26'922.0
2018-Jul-06 23:29N 36°27' E 024°16'3620.2
2018-Jul-06 21:41N 36°60' E 023°56'421.1
2018-Jul-06 21:30N 37°03' E 023°55'1321.2
2018-Jul-06 20:53N 37°16' E 023°51'821.4
2018-Jul-06 20:30N 37°24' E 023°48'1121.2
2018-Jul-06 20:00N 37°34' E 023°44'1020.5
2018-Jul-06 19:30N 37°43' E 023°39'816.7
2018-Jul-06 19:00N 37°51' E 023°37'510.5
2018-Jul-06 18:30N 37°57' E 023°36'1 2.0
2018-Jul-06 18:00N 37°57' E 023°35'0 0.1
2018-Jul-06 17:30N 37°57' E 023°35'0 0.0
2018-Jul-06 17:00N 37°57' E 023°35'0 0.0
2018-Jul-06 16:30N 37°57' E 023°35'0 0.0
2018-Jul-06 16:00N 37°57' E 023°35'0 0.0
2018-Jul-06 15:30N 37°57' E 023°35'0 0.0
2018-Jul-06 15:00N 37°57' E 023°35'0 0.0
2018-Jul-06 14:30N 37°57' E 023°35'0 0.0
2018-Jul-06 14:00N 37°57' E 023°35'0 0.0
2018-Jul-06 13:30N 37°57' E 023°35'0 0.0
2018-Jul-06 13:00N 37°57' E 023°35'0 0.0
2018-Jul-06 12:30N 37°57' E 023°35'0 0.0
2018-Jul-06 12:00N 37°57' E 023°35'0 0.0
2018-Jul-06 11:30N 37°57' E 023°35'0 0.0
2018-Jul-06 11:00N 37°57' E 023°35'0 0.0
2018-Jul-06 10:30N 37°57' E 023°35'0 0.0
2018-Jul-06 09:54N 37°57' E 023°35'0 0.0
2018-Jul-06 09:18N 37°57' E 023°35'0 0.0
2018-Jul-06 09:00N 37°57' E 023°35'0 0.0
2018-Jul-06 08:12N 37°57' E 023°35'0 0.0
2018-Jul-06 08:00N 37°57' E 023°35'0 0.0
2018-Jul-06 07:30N 37°57' E 023°35'0 0.0
2018-Jul-06 07:00N 37°57' E 023°35'0 0.0
2018-Jul-06 06:27N 37°57' E 023°35'0 0.0
2018-Jul-06 06:00N 37°57' E 023°35'0 0.0
2018-Jul-06 05:30N 37°57' E 023°35'0 0.0
2018-Jul-06 05:00N 37°57' E 023°35'0 0.0
2018-Jul-06 04:30N 37°57' E 023°35'0 0.0
2018-Jul-06 04:00N 37°57' E 023°35'0 0.0
2018-Jul-06 03:30N 37°57' E 023°35'0 0.0
2018-Jul-06 03:00N 37°57' E 023°35'0 0.0
2018-Jul-06 02:30N 37°57' E 023°35'0 0.0
2018-Jul-06 02:00N 37°57' E 023°35'0 0.0
2018-Jul-06 01:30N 37°57' E 023°35'0 0.0
2018-Jul-06 01:00N 37°57' E 023°35'0 0.0
2018-Jul-06 00:30N 37°57' E 023°35'0 0.0
2018-Jul-06 00:00N 37°57' E 023°35'0 0.0
2018-Jul-05 23:30N 37°57' E 023°35'0 0.0
2018-Jul-05 23:00N 37°57' E 023°35'0 0.0
2018-Jul-05 22:30N 37°57' E 023°35'0 0.0
2018-Jul-05 22:00N 37°57' E 023°35'0 0.0
2018-Jul-05 21:30N 37°57' E 023°35'0 0.0
2018-Jul-05 21:00N 37°57' E 023°35'0 0.0
2018-Jul-05 20:30N 37°57' E 023°35'0 0.0
2018-Jul-05 20:00N 37°57' E 023°35'0 0.0
2018-Jul-05 19:30N 37°57' E 023°35'0 0.0
2018-Jul-05 19:00N 37°57' E 023°35'0 0.0
2018-Jul-05 18:30N 37°57' E 023°35'0 0.0
2018-Jul-05 18:00N 37°57' E 023°35'0 0.0
2018-Jul-05 17:30N 37°57' E 023°35'0 0.0
2018-Jul-05 17:00N 37°57' E 023°35'0 0.0
2018-Jul-05 16:30N 37°57' E 023°35'0 0.0
2018-Jul-05 16:00N 37°57' E 023°35'0 0.1
2018-Jul-05 15:30N 37°57' E 023°35'0 0.0
2018-Jul-05 15:00N 37°57' E 023°35'0 0.0
2018-Jul-05 14:30N 37°57' E 023°35'0 0.0
2018-Jul-05 13:30N 37°57' E 023°35'0 0.0
2018-Jul-05 13:00N 37°57' E 023°35'0 0.0
2018-Jul-05 12:30N 37°57' E 023°35'0 0.0
2018-Jul-05 12:00N 37°57' E 023°35'0 0.0
2018-Jul-05 11:30N 37°57' E 023°35'0 0.1
2018-Jul-05 11:00N 37°57' E 023°35'0 0.0
2018-Jul-05 10:30N 37°57' E 023°35'0 0.0
2018-Jul-05 10:00N 37°57' E 023°35'0 0.0
2018-Jul-05 09:30N 37°57' E 023°35'0 0.0
2018-Jul-05 09:00N 37°57' E 023°35'0 0.0
2018-Jul-05 08:30N 37°57' E 023°35'0 0.0
2018-Jul-05 08:00N 37°57' E 023°35'0 0.0
2018-Jul-05 07:30N 37°57' E 023°35'0 0.0
2018-Jul-05 07:00N 37°57' E 023°35'0 0.0
2018-Jul-05 06:30N 37°57' E 023°35'0 0.0
2018-Jul-05 06:00N 37°57' E 023°35'0 0.0
2018-Jul-05 05:30N 37°57' E 023°35'0 0.0
2018-Jul-05 05:00N 37°57' E 023°35'0 0.0
2018-Jul-05 04:30N 37°57' E 023°35'0 0.0
2018-Jul-05 04:00N 37°57' E 023°35'0 0.0
2018-Jul-05 03:30N 37°57' E 023°35'0 0.0
2018-Jul-05 03:00N 37°57' E 023°35'0 0.0
2018-Jul-05 02:30N 37°57' E 023°35'0 0.0
2018-Jul-05 02:00N 37°57' E 023°35'0 0.0
2018-Jul-05 01:30N 37°57' E 023°35'0 0.0
2018-Jul-05 01:00N 37°57' E 023°35'0 0.0
2018-Jul-05 00:30N 37°57' E 023°35'0 0.0
2018-Jul-05 00:00N 37°57' E 023°35'0 0.0
2018-Jul-04 23:30N 37°57' E 023°35'0 0.0
2018-Jul-04 23:00N 37°57' E 023°35'0 0.2
2018-Jul-04 22:30N 37°57' E 023°35'2 4.1
2018-Jul-04 22:00N 37°55' E 023°35'2 3.1
2018-Jul-04 21:30N 37°54' E 023°35'1 2.8
2018-Jul-04 21:00N 37°52' E 023°35'1 1.2
2018-Jul-04 20:30N 37°52' E 023°35'0 0.4
2018-Jul-04 20:00N 37°52' E 023°35'2 4.8
2018-Jul-04 19:31N 37°51' E 023°38'5 9.1
2018-Jul-04 19:00N 37°47' E 023°41'511.0
2018-Jul-04 18:30N 37°43' E 023°44'816.7
2018-Jul-04 18:00N 37°35' E 023°47'1020.0
2018-Jul-04 17:30N 37°25' E 023°45'1121.9
2018-Jul-04 17:00N 37°14' E 023°42'1122.2
2018-Jul-04 16:30N 37°03' E 023°39'1122.2
2018-Jul-04 16:00N 36°52' E 023°35'1122.2
2018-Jul-04 15:30N 36°42' E 023°31'1122.3
2018-Jul-04 15:00N 36°32' E 023°25'1122.1
2018-Jul-04 14:30N 36°22' E 023°20'49421.6
2018-Jul-03 15:36N 36°58' E 013°06'222.5
2018-Jul-03 15:30N 36°59' E 013°03'1122.6
2018-Jul-03 15:00N 37°03' E 012°50'1222.6
2018-Jul-03 14:28N 37°08' E 012°36'1022.1
2018-Jul-03 14:00N 37°11' E 012°24'35222.3
2018-Jul-02 22:15N 38°40' E 005°12'921.6
2018-Jul-02 21:51N 38°42' E 005°01'1321.8
2018-Jul-02 21:16N 38°45' E 004°46'621.9
2018-Jul-02 21:00N 38°46' E 004°39'1122.0
2018-Jul-02 20:30N 38°48' E 004°25'1422.0
2018-Jul-02 19:51N 38°51' E 004°07'1122.2
2018-Jul-02 19:21N 38°54' E 003°53'822.0
2018-Jul-02 19:00N 38°55' E 003°43'1122.0
2018-Jul-02 18:30N 38°58' E 003°29'1121.8
2018-Jul-02 18:00N 38°60' E 003°16'1122.0
2018-Jul-02 17:30N 39°02' E 003°02'1122.1
2018-Jul-02 17:00N 39°05' E 002°48'1122.1
2018-Jul-02 16:30N 39°07' E 002°34'1122.1
2018-Jul-02 16:00N 39°09' E 002°20'1322.0
2018-Jul-02 15:26N 39°12' E 002°04'10421.8
2018-Jul-02 10:39N 39°24' W 000°09'215.8
2018-Jul-02 10:30N 39°25' W 000°12'5 9.9
2018-Jul-02 10:00N 39°26' W 000°19'1 1.1
2018-Jul-02 09:30N 39°26' W 000°19'0 0.0
2018-Jul-02 09:00N 39°26' W 000°19'0 0.0
2018-Jul-02 08:30N 39°26' W 000°19'0 0.0
2018-Jul-02 08:00N 39°26' W 000°19'0 0.0
2018-Jul-02 07:15N 39°26' W 000°19'0 0.0
2018-Jul-02 07:00N 39°26' W 000°19'0 0.0
2018-Jul-02 06:24N 39°26' W 000°19'0 0.0
2018-Jul-02 06:00N 39°26' W 000°19'0 0.0
2018-Jul-02 05:30N 39°26' W 000°19'0 0.0
2018-Jul-02 05:00N 39°26' W 000°19'0 0.0
2018-Jul-02 03:42N 39°26' W 000°19'0 0.0
2018-Jul-02 03:30N 39°26' W 000°19'0 0.0
2018-Jul-02 03:00N 39°26' W 000°19'0 0.0
2018-Jul-02 02:30N 39°26' W 000°19'0 0.0
2018-Jul-02 02:00N 39°26' W 000°19'0 0.0
2018-Jul-02 01:30N 39°26' W 000°19'0 0.0
2018-Jul-02 01:00N 39°26' W 000°19'0 0.0
2018-Jul-02 00:30N 39°26' W 000°19'0 0.0
2018-Jul-02 00:00N 39°26' W 000°19'0 0.0
2018-Jul-01 23:18N 39°26' W 000°19'0 0.0
2018-Jul-01 20:48N 39°26' W 000°19'0 0.0
2018-Jul-01 20:30N 39°26' W 000°19'0 0.0
2018-Jul-01 20:00N 39°26' W 000°19'0 0.0
2018-Jul-01 19:30N 39°26' W 000°19'0 0.0
2018-Jul-01 17:48N 39°26' W 000°19'0 0.0
2018-Jul-01 16:48N 39°26' W 000°19'0 0.0
2018-Jul-01 16:30N 39°26' W 000°19'0 0.0
2018-Jul-01 15:57N 39°26' W 000°19'0 0.0
2018-Jul-01 15:27N 39°26' W 000°19'0 0.0
2018-Jul-01 14:30N 39°26' W 000°19'0 0.0
2018-Jul-01 14:00N 39°26' W 000°19'0 0.0
2018-Jul-01 13:30N 39°26' W 000°19'0 0.0
2018-Jul-01 12:57N 39°26' W 000°19'0 0.0
2018-Jul-01 10:24N 39°26' W 000°19'0 0.0
2018-Jul-01 10:00N 39°26' W 000°19'0 0.0
2018-Jul-01 09:30N 39°26' W 000°19'0 0.0
2018-Jul-01 09:00N 39°26' W 000°19'0 0.0
2018-Jul-01 08:30N 39°26' W 000°19'0 0.0
2018-Jul-01 08:00N 39°26' W 000°19'0 0.0
2018-Jul-01 07:27N 39°26' W 000°19'0 0.0
2018-Jul-01 07:00N 39°26' W 000°19'0 0.0
2018-Jul-01 06:30N 39°26' W 000°19'0 0.0
2018-Jul-01 06:00N 39°26' W 000°19'0 0.0
2018-Jul-01 05:30N 39°26' W 000°19'0 0.0
2018-Jul-01 04:57N 39°26' W 000°19'0 0.0
2018-Jul-01 04:27N 39°26' W 000°19'0 0.0
2018-Jul-01 04:00N 39°26' W 000°19'0 0.0
2018-Jul-01 02:42N 39°26' W 000°19'0 0.0
2018-Jul-01 02:21N 39°26' W 000°19'0 0.0
2018-Jul-01 02:00N 39°26' W 000°19'0 0.0
2018-Jul-01 01:18N 39°26' W 000°19'0 0.0
2018-Jul-01 01:00N 39°26' W 000°19'0 0.0
2018-Jul-01 00:21N 39°26' W 000°19'0 0.0
2018-Jul-01 00:00N 39°26' W 000°19'0 0.0
2018-Jun-30 23:30N 39°26' W 000°19'0 0.0
2018-Jun-30 23:00N 39°26' W 000°19'0 0.1
2018-Jun-30 22:30N 39°26' W 000°19'1 2.2
2018-Jun-30 22:00N 39°26' W 000°18'2 4.7
2018-Jun-30 21:30N 39°25' W 000°15'1 1.1
2018-Jun-30 21:00N 39°25' W 000°15'2 4.7
2018-Jun-30 20:31N 39°25' W 000°12'5 9.8
2018-Jun-30 20:00N 39°27' W 000°06'9118.6
2018-Jun-30 15:05N 40°16' E 001°35'222.5
2018-Jun-30 14:59N 40°17' E 001°37'1122.7
2018-Jun-30 14:30N 40°24' E 001°48'1123.0
2018-Jun-30 14:01N 40°31' E 001°60'1322.9
2018-Jun-30 13:26N 40°40' E 002°13'1022.5
2018-Jun-30 12:59N 40°46' E 002°23'1122.7
2018-Jun-30 12:30N 40°53' E 002°34'1122.8
2018-Jun-30 12:00N 41°01' E 002°46'1122.7
2018-Jun-30 11:31N 41°08' E 002°57'1122.9
2018-Jun-30 11:00N 41°15' E 003°09'1223.2
2018-Jun-30 10:31N 41°22' E 003°21'1122.9
2018-Jun-30 10:01N 41°30' E 003°33'1122.5
2018-Jun-30 09:30N 41°37' E 003°44'1122.2
2018-Jun-30 09:00N 41°45' E 003°54'1121.8
2018-Jun-30 08:30N 41°55' E 004°02'1121.7
2018-Jun-30 08:00N 42°04' E 004°09'1121.6
2018-Jun-30 07:30N 42°14' E 004°16'1121.8
2018-Jun-30 07:01N 42°23' E 004°23'1122.1
2018-Jun-30 06:30N 42°33' E 004°31'1122.5
2018-Jun-30 06:01N 42°43' E 004°38'1622.5
2018-Jun-30 05:18N 42°56' E 004°49'722.4
2018-Jun-30 05:00N 43°02' E 004°53'1020.9
2018-Jun-30 04:30N 43°11' E 005°00'816.2
2018-Jun-30 04:01N 43°19' E 004°59'510.7
2018-Jun-30 03:30N 43°24' E 004°55'3 6.3
2018-Jun-30 03:00N 43°25' E 004°51'0 0.0
2018-Jun-30 02:29N 43°25' E 004°51'0 0.0
2018-Jun-30 01:59N 43°25' E 004°51'0 0.0
2018-Jun-30 01:29N 43°25' E 004°51'0 0.0
2018-Jun-30 00:59N 43°25' E 004°51'0 0.0
2018-Jun-30 00:29N 43°25' E 004°51'0 0.0
2018-Jun-29 23:59N 43°25' E 004°51'0 0.0
2018-Jun-29 23:29N 43°25' E 004°51'0 0.0
2018-Jun-29 22:59N 43°25' E 004°51'0 0.0
2018-Jun-29 22:29N 43°25' E 004°51'0 0.0
2018-Jun-29 21:59N 43°25' E 004°51'0 0.0
2018-Jun-29 21:30N 43°25' E 004°51'0 0.0
2018-Jun-29 21:00N 43°25' E 004°51'0 0.0
2018-Jun-29 20:30N 43°25' E 004°51'0 0.0
2018-Jun-29 20:00N 43°25' E 004°51'0 0.0
2018-Jun-29 19:30N 43°25' E 004°51'0 0.0
2018-Jun-29 19:00N 43°25' E 004°51'0 0.0
2018-Jun-29 18:30N 43°25' E 004°51'0 0.0
2018-Jun-29 18:00N 43°25' E 004°51'0 0.0
2018-Jun-29 17:30N 43°25' E 004°51'0 0.0
2018-Jun-29 17:00N 43°25' E 004°51'0 0.0
2018-Jun-29 16:30N 43°25' E 004°51'0 0.0
2018-Jun-29 16:00N 43°25' E 004°51'0 0.0
2018-Jun-29 15:30N 43°25' E 004°51'0 0.0
2018-Jun-29 15:00N 43°25' E 004°51'0 0.0
2018-Jun-29 14:30N 43°25' E 004°51'0 0.0
2018-Jun-29 14:00N 43°25' E 004°51'0 0.0
2018-Jun-29 13:30N 43°25' E 004°51'0 0.0
2018-Jun-29 13:00N 43°25' E 004°51'0 0.0
2018-Jun-29 12:30N 43°25' E 004°51'0 0.0
2018-Jun-29 12:00N 43°25' E 004°51'0 0.0
2018-Jun-29 11:30N 43°25' E 004°51'0 0.0
2018-Jun-29 11:00N 43°25' E 004°51'0 0.0
2018-Jun-29 10:30N 43°25' E 004°51'0 0.0
2018-Jun-29 10:00N 43°25' E 004°51'0 0.0
2018-Jun-29 09:30N 43°25' E 004°51'0 0.0
2018-Jun-29 09:00N 43°25' E 004°51'0 0.0
2018-Jun-29 08:30N 43°25' E 004°51'0 0.0
2018-Jun-29 08:00N 43°25' E 004°51'0 0.0
2018-Jun-29 07:30N 43°25' E 004°51'0 0.0
2018-Jun-29 07:00N 43°25' E 004°51'0 0.0
2018-Jun-29 06:30N 43°25' E 004°51'0 0.0
2018-Jun-29 06:00N 43°25' E 004°51'0 0.0
2018-Jun-29 05:28N 43°25' E 004°51'0 0.0
2018-Jun-29 04:58N 43°25' E 004°51'0 0.0
2018-Jun-29 04:28N 43°25' E 004°51'0 0.0
2018-Jun-29 03:58N 43°25' E 004°51'0 0.0
2018-Jun-29 03:28N 43°25' E 004°51'0 0.0
2018-Jun-29 02:58N 43°25' E 004°51'0 0.0
2018-Jun-29 02:28N 43°25' E 004°51'0 0.0
2018-Jun-29 01:58N 43°25' E 004°51'0 0.0
2018-Jun-29 01:28N 43°25' E 004°51'0 0.0
2018-Jun-29 00:58N 43°25' E 004°51'0 0.0
2018-Jun-29 00:28N 43°25' E 004°51'0 0.0
2018-Jun-28 23:58N 43°25' E 004°51'0 0.0
2018-Jun-28 23:28N 43°25' E 004°51'0 0.0
2018-Jun-28 22:58N 43°25' E 004°51'0 0.0
2018-Jun-28 22:28N 43°25' E 004°51'0 0.0
2018-Jun-28 21:55N 43°25' E 004°51'0 0.0
2018-Jun-28 21:28N 43°25' E 004°51'0 0.0
2018-Jun-28 20:58N 43°25' E 004°51'0 0.0
2018-Jun-28 20:22N 43°25' E 004°51'0 0.0
2018-Jun-28 19:58N 43°25' E 004°51'0 0.0
2018-Jun-28 19:28N 43°25' E 004°51'0 0.0
2018-Jun-28 18:58N 43°25' E 004°51'0 0.0
2018-Jun-28 18:28N 43°25' E 004°51'0 0.0
2018-Jun-28 17:58N 43°25' E 004°51'0 0.0
2018-Jun-28 17:22N 43°25' E 004°51'0 0.0
2018-Jun-28 16:58N 43°25' E 004°51'0 0.0
2018-Jun-28 16:28N 43°25' E 004°51'0 0.0
2018-Jun-28 15:55N 43°25' E 004°51'0 0.0
2018-Jun-28 15:28N 43°25' E 004°51'0 0.0
2018-Jun-28 14:58N 43°25' E 004°51'0 0.0
2018-Jun-28 14:28N 43°25' E 004°51'0 0.0
2018-Jun-28 13:55N 43°25' E 004°51'0 0.0
2018-Jun-28 13:28N 43°25' E 004°51'0 0.0
2018-Jun-28 12:52N 43°25' E 004°51'0 0.0
2018-Jun-28 12:22N 43°25' E 004°51'0 0.0
2018-Jun-28 11:58N 43°25' E 004°51'0 0.0
2018-Jun-28 11:28N 43°25' E 004°51'0 0.0
2018-Jun-28 10:52N 43°25' E 004°51'0 0.0
2018-Jun-28 10:28N 43°25' E 004°51'0 0.0
2018-Jun-28 09:58N 43°25' E 004°51'0 0.0
2018-Jun-28 09:16N 43°25' E 004°51'0 0.0
2018-Jun-28 08:58N 43°25' E 004°51'0 0.0
2018-Jun-28 08:28N 43°25' E 004°51'0 0.0
2018-Jun-28 07:58N 43°25' E 004°51'0 0.0
2018-Jun-28 07:28N 43°25' E 004°51'  

Dump ship's entire track history